sensor_id;sensor_type;location;lat;lon;timestamp;temperature;humidity
66608;DHT22;53462;39.616;8.824;2022-07-23T00:02:10;26.10;79.70
66608;DHT22;53462;39.616;8.824;2022-07-23T00:04:36;26.20;80.10
66608;DHT22;53462;39.616;8.824;2022-07-23T00:07:02;26.20;79.90
66608;DHT22;53462;39.616;8.824;2022-07-23T00:09:28;26.20;79.00
66608;DHT22;53462;39.616;8.824;2022-07-23T00:11:56;26.30;78.60
66608;DHT22;53462;39.616;8.824;2022-07-23T00:14:22;26.30;78.40
66608;DHT22;53462;39.616;8.824;2022-07-23T00:16:48;26.40;77.80
66608;DHT22;53462;39.616;8.824;2022-07-23T00:19:14;26.40;77.00
66608;DHT22;53462;39.616;8.824;2022-07-23T00:21:40;26.30;76.80
66608;DHT22;53462;39.616;8.824;2022-07-23T00:24:06;26.30;76.30
66608;DHT22;53462;39.616;8.824;2022-07-23T00:26:32;26.40;75.50
66608;DHT22;53462;39.616;8.824;2022-07-23T00:28:58;26.40;75.30
66608;DHT22;53462;39.616;8.824;2022-07-23T00:31:24;26.30;75.10
66608;DHT22;53462;39.616;8.824;2022-07-23T00:33:49;26.30;75.70
66608;DHT22;53462;39.616;8.824;2022-07-23T00:36:16;26.10;75.80
66608;DHT22;53462;39.616;8.824;2022-07-23T00:38:42;25.90;76.40
66608;DHT22;53462;39.616;8.824;2022-07-23T00:41:08;25.70;75.90
66608;DHT22;53462;39.616;8.824;2022-07-23T00:43:34;25.50;75.80
66608;DHT22;53462;39.616;8.824;2022-07-23T00:46:00;25.30;75.00
66608;DHT22;53462;39.616;8.824;2022-07-23T00:48:26;25.10;74.50
66608;DHT22;53462;39.616;8.824;2022-07-23T00:50:52;25.00;72.80
66608;DHT22;53462;39.616;8.824;2022-07-23T00:53:19;25.00;72.20
66608;DHT22;53462;39.616;8.824;2022-07-23T00:55:45;25.00;72.70
66608;DHT22;53462;39.616;8.824;2022-07-23T00:58:12;24.90;72.80
66608;DHT22;53462;39.616;8.824;2022-07-23T01:00:39;24.90;72.30
66608;DHT22;53462;39.616;8.824;2022-07-23T01:03:05;24.90;72.00
66608;DHT22;53462;39.616;8.824;2022-07-23T01:05:31;24.90;71.90
66608;DHT22;53462;39.616;8.824;2022-07-23T01:07:57;24.90;73.00
66608;DHT22;53462;39.616;8.824;2022-07-23T01:10:24;24.90;75.10
66608;DHT22;53462;39.616;8.824;2022-07-23T01:12:57;24.90;77.00
66608;DHT22;53462;39.616;8.824;2022-07-23T01:15:23;24.90;78.30
66608;DHT22;53462;39.616;8.824;2022-07-23T01:17:50;24.90;78.90
66608;DHT22;53462;39.616;8.824;2022-07-23T01:20:16;24.80;78.80
66608;DHT22;53462;39.616;8.824;2022-07-23T01:22:43;24.80;79.00
66608;DHT22;53462;39.616;8.824;2022-07-23T01:25:09;24.70;78.80
66608;DHT22;53462;39.616;8.824;2022-07-23T01:27:36;24.60;78.70
66608;DHT22;53462;39.616;8.824;2022-07-23T01:30:04;24.50;79.10
66608;DHT22;53462;39.616;8.824;2022-07-23T01:32:31;24.50;79.80
66608;DHT22;53462;39.616;8.824;2022-07-23T01:34:57;24.50;80.20
66608;DHT22;53462;39.616;8.824;2022-07-23T01:37:23;24.50;80.70
66608;DHT22;53462;39.616;8.824;2022-07-23T01:39:49;24.50;81.00
66608;DHT22;53462;39.616;8.824;2022-07-23T01:42:15;24.70;80.80
66608;DHT22;53462;39.616;8.824;2022-07-23T01:44:41;24.70;80.10
66608;DHT22;53462;39.616;8.824;2022-07-23T01:47:12;24.80;79.90
66608;DHT22;53462;39.616;8.824;2022-07-23T01:49:38;25.00;78.60
66608;DHT22;53462;39.616;8.824;2022-07-23T01:52:31;25.00;77.90
66608;DHT22;53462;39.616;8.824;2022-07-23T01:54:57;25.00;77.80
66608;DHT22;53462;39.616;8.824;2022-07-23T01:57:23;25.10;77.40
66608;DHT22;53462;39.616;8.824;2022-07-23T01:59:49;25.00;77.40
66608;DHT22;53462;39.616;8.824;2022-07-23T02:02:18;25.00;77.10
66608;DHT22;53462;39.616;8.824;2022-07-23T02:04:44;25.10;76.80
66608;DHT22;53462;39.616;8.824;2022-07-23T02:07:10;25.00;76.60
66608;DHT22;53462;39.616;8.824;2022-07-23T02:09:35;25.00;76.20
66608;DHT22;53462;39.616;8.824;2022-07-23T02:12:01;25.00;75.60
66608;DHT22;53462;39.616;8.824;2022-07-23T02:14:28;24.90;74.90
66608;DHT22;53462;39.616;8.824;2022-07-23T02:16:54;24.90;73.40
66608;DHT22;53462;39.616;8.824;2022-07-23T02:19:20;24.80;72.90
66608;DHT22;53462;39.616;8.824;2022-07-23T02:21:46;24.90;72.30
66608;DHT22;53462;39.616;8.824;2022-07-23T02:24:12;25.00;66.20
66608;DHT22;53462;39.616;8.824;2022-07-23T02:26:40;25.20;63.90
66608;DHT22;53462;39.616;8.824;2022-07-23T02:29:07;25.30;62.80
66608;DHT22;53462;39.616;8.824;2022-07-23T02:31:33;25.20;61.90
66608;DHT22;53462;39.616;8.824;2022-07-23T02:34:00;25.20;62.10
66608;DHT22;53462;39.616;8.824;2022-07-23T02:36:26;25.10;62.00
66608;DHT22;53462;39.616;8.824;2022-07-23T02:38:52;25.00;62.00
66608;DHT22;53462;39.616;8.824;2022-07-23T02:41:19;25.00;62.20
66608;DHT22;53462;39.616;8.824;2022-07-23T02:43:45;25.10;62.50
66608;DHT22;53462;39.616;8.824;2022-07-23T02:46:12;25.10;62.30
66608;DHT22;53462;39.616;8.824;2022-07-23T02:48:38;25.10;62.80
66608;DHT22;53462;39.616;8.824;2022-07-23T02:51:04;25.20;62.70
66608;DHT22;53462;39.616;8.824;2022-07-23T02:53:36;25.10;63.10
66608;DHT22;53462;39.616;8.824;2022-07-23T02:56:03;25.10;63.60
66608;DHT22;53462;39.616;8.824;2022-07-23T02:58:28;25.10;64.10
66608;DHT22;53462;39.616;8.824;2022-07-23T03:00:54;25.10;64.10
66608;DHT22;53462;39.616;8.824;2022-07-23T03:03:20;25.10;63.80
66608;DHT22;53462;39.616;8.824;2022-07-23T03:05:47;25.20;63.50
66608;DHT22;53462;39.616;8.824;2022-07-23T03:08:13;25.20;63.50
66608;DHT22;53462;39.616;8.824;2022-07-23T03:10:41;25.20;63.80
66608;DHT22;53462;39.616;8.824;2022-07-23T03:13:07;25.20;63.20
66608;DHT22;53462;39.616;8.824;2022-07-23T03:15:34;25.20;63.00
66608;DHT22;53462;39.616;8.824;2022-07-23T03:18:00;25.20;63.30
66608;DHT22;53462;39.616;8.824;2022-07-23T03:20:28;25.20;63.30
66608;DHT22;53462;39.616;8.824;2022-07-23T03:22:54;25.20;63.50
66608;DHT22;53462;39.616;8.824;2022-07-23T03:25:20;25.20;62.60
66608;DHT22;53462;39.616;8.824;2022-07-23T03:27:47;25.20;62.10
66608;DHT22;53462;39.616;8.824;2022-07-23T03:30:13;25.20;62.70
66608;DHT22;53462;39.616;8.824;2022-07-23T03:32:39;25.10;63.80
66608;DHT22;53462;39.616;8.824;2022-07-23T03:35:05;24.80;64.50
66608;DHT22;53462;39.616;8.824;2022-07-23T03:37:31;24.50;64.80
66608;DHT22;53462;39.616;8.824;2022-07-23T03:39:58;24.40;65.20
66608;DHT22;53462;39.616;8.824;2022-07-23T03:42:24;24.30;65.10
66608;DHT22;53462;39.616;8.824;2022-07-23T03:44:50;24.10;65.30
66608;DHT22;53462;39.616;8.824;2022-07-23T03:47:16;24.00;65.60
66608;DHT22;53462;39.616;8.824;2022-07-23T03:49:43;23.90;65.60
66608;DHT22;53462;39.616;8.824;2022-07-23T03:52:09;23.70;66.60
66608;DHT22;53462;39.616;8.824;2022-07-23T03:54:35;23.50;67.60
66608;DHT22;53462;39.616;8.824;2022-07-23T03:57:01;23.30;68.40
66608;DHT22;53462;39.616;8.824;2022-07-23T03:59:28;23.30;68.90
66608;DHT22;53462;39.616;8.824;2022-07-23T04:01:54;23.10;69.60
66608;DHT22;53462;39.616;8.824;2022-07-23T04:04:20;23.00;69.90
66608;DHT22;53462;39.616;8.824;2022-07-23T04:06:46;22.90;69.90
66608;DHT22;53462;39.616;8.824;2022-07-23T04:09:14;23.00;70.10
66608;DHT22;53462;39.616;8.824;2022-07-23T04:11:40;23.10;70.10
66608;DHT22;53462;39.616;8.824;2022-07-23T04:14:06;23.20;70.60
66608;DHT22;53462;39.616;8.824;2022-07-23T04:16:33;23.20;70.70
66608;DHT22;53462;39.616;8.824;2022-07-23T04:18:59;23.10;70.90
66608;DHT22;53462;39.616;8.824;2022-07-23T04:21:29;23.00;71.30
66608;DHT22;53462;39.616;8.824;2022-07-23T04:23:55;23.00;71.40
66608;DHT22;53462;39.616;8.824;2022-07-23T04:26:21;23.10;71.40
66608;DHT22;53462;39.616;8.824;2022-07-23T04:28:47;23.10;71.10
66608;DHT22;53462;39.616;8.824;2022-07-23T04:31:13;23.10;70.90
66608;DHT22;53462;39.616;8.824;2022-07-23T04:33:39;23.10;68.90
66608;DHT22;53462;39.616;8.824;2022-07-23T04:36:07;23.20;66.00
66608;DHT22;53462;39.616;8.824;2022-07-23T04:38:33;23.40;65.80
66608;DHT22;53462;39.616;8.824;2022-07-23T04:41:01;23.50;65.90
66608;DHT22;53462;39.616;8.824;2022-07-23T04:43:28;23.60;66.50
66608;DHT22;53462;39.616;8.824;2022-07-23T04:45:54;23.70;67.00
66608;DHT22;53462;39.616;8.824;2022-07-23T04:48:20;23.70;67.40
66608;DHT22;53462;39.616;8.824;2022-07-23T04:50:48;23.70;67.70
66608;DHT22;53462;39.616;8.824;2022-07-23T04:53:18;23.70;68.10
66608;DHT22;53462;39.616;8.824;2022-07-23T04:55:46;23.80;68.00
66608;DHT22;53462;39.616;8.824;2022-07-23T04:58:12;23.80;67.10
66608;DHT22;53462;39.616;8.824;2022-07-23T05:00:38;23.80;65.90
66608;DHT22;53462;39.616;8.824;2022-07-23T05:03:04;23.70;65.70
66608;DHT22;53462;39.616;8.824;2022-07-23T05:05:31;23.70;65.70
66608;DHT22;53462;39.616;8.824;2022-07-23T05:08:05;23.80;66.00
66608;DHT22;53462;39.616;8.824;2022-07-23T05:10:32;23.70;66.20
66608;DHT22;53462;39.616;8.824;2022-07-23T05:12:58;23.70;66.40
66608;DHT22;53462;39.616;8.824;2022-07-23T05:15:24;23.90;65.80
66608;DHT22;53462;39.616;8.824;2022-07-23T05:17:50;24.10;66.00
66608;DHT22;53462;39.616;8.824;2022-07-23T05:20:17;24.20;66.20
66608;DHT22;53462;39.616;8.824;2022-07-23T05:22:43;24.40;65.70
66608;DHT22;53462;39.616;8.824;2022-07-23T05:25:09;24.50;65.20
66608;DHT22;53462;39.616;8.824;2022-07-23T05:27:35;24.60;64.90
66608;DHT22;53462;39.616;8.824;2022-07-23T05:30:01;24.90;64.00
66608;DHT22;53462;39.616;8.824;2022-07-23T05:32:31;25.00;63.80
66608;DHT22;53462;39.616;8.824;2022-07-23T05:35:07;25.20;63.20
66608;DHT22;53462;39.616;8.824;2022-07-23T05:37:36;25.40;62.80
66608;DHT22;53462;39.616;8.824;2022-07-23T05:40:07;25.50;62.60
66608;DHT22;53462;39.616;8.824;2022-07-23T05:42:35;25.60;62.90
66608;DHT22;53462;39.616;8.824;2022-07-23T05:45:01;25.70;62.90
66608;DHT22;53462;39.616;8.824;2022-07-23T05:47:28;25.70;61.90
66608;DHT22;53462;39.616;8.824;2022-07-23T05:49:54;25.90;61.50
66608;DHT22;53462;39.616;8.824;2022-07-23T05:52:29;26.10;60.50
66608;DHT22;53462;39.616;8.824;2022-07-23T05:55:24;26.30;59.40
66608;DHT22;53462;39.616;8.824;2022-07-23T05:57:50;26.80;59.00
66608;DHT22;53462;39.616;8.824;2022-07-23T06:00:16;26.90;59.20
66608;DHT22;53462;39.616;8.824;2022-07-23T06:02:44;27.20;59.00
66608;DHT22;53462;39.616;8.824;2022-07-23T06:05:12;27.30;58.90
66608;DHT22;53462;39.616;8.824;2022-07-23T06:07:38;27.50;56.60
66608;DHT22;53462;39.616;8.824;2022-07-23T06:10:04;27.90;56.70
66608;DHT22;53462;39.616;8.824;2022-07-23T06:12:30;28.00;56.40
66608;DHT22;53462;39.616;8.824;2022-07-23T06:14:57;28.10;57.10
66608;DHT22;53462;39.616;8.824;2022-07-23T06:17:23;28.20;56.20
66608;DHT22;53462;39.616;8.824;2022-07-23T06:19:49;28.10;56.30
66608;DHT22;53462;39.616;8.824;2022-07-23T06:22:15;28.40;55.80
66608;DHT22;53462;39.616;8.824;2022-07-23T06:24:41;28.60;54.10
66608;DHT22;53462;39.616;8.824;2022-07-23T06:27:07;28.70;54.80
66608;DHT22;53462;39.616;8.824;2022-07-23T06:29:34;28.90;53.30
66608;DHT22;53462;39.616;8.824;2022-07-23T06:32:00;28.90;54.20
66608;DHT22;53462;39.616;8.824;2022-07-23T06:34:26;28.90;54.70
66608;DHT22;53462;39.616;8.824;2022-07-23T06:36:54;29.20;53.10
66608;DHT22;53462;39.616;8.824;2022-07-23T06:39:20;29.40;52.40
66608;DHT22;53462;39.616;8.824;2022-07-23T06:41:48;29.50;52.00
66608;DHT22;53462;39.616;8.824;2022-07-23T06:44:16;30.00;49.70
66608;DHT22;53462;39.616;8.824;2022-07-23T06:46:42;30.20;50.30
66608;DHT22;53462;39.616;8.824;2022-07-23T06:49:09;30.20;50.80
66608;DHT22;53462;39.616;8.824;2022-07-23T06:51:35;30.20;50.30
66608;DHT22;53462;39.616;8.824;2022-07-23T06:54:02;30.30;50.00
66608;DHT22;53462;39.616;8.824;2022-07-23T06:56:28;30.40;50.00
66608;DHT22;53462;39.616;8.824;2022-07-23T06:58:54;30.10;47.60
66608;DHT22;53462;39.616;8.824;2022-07-23T07:01:20;30.50;48.40
66608;DHT22;53462;39.616;8.824;2022-07-23T07:03:47;30.90;46.00
66608;DHT22;53462;39.616;8.824;2022-07-23T07:06:13;31.10;46.00
66608;DHT22;53462;39.616;8.824;2022-07-23T07:08:39;31.20;46.20
66608;DHT22;53462;39.616;8.824;2022-07-23T07:11:05;31.40;46.20
66608;DHT22;53462;39.616;8.824;2022-07-23T07:13:31;31.30;45.50
66608;DHT22;53462;39.616;8.824;2022-07-23T07:15:57;31.30;44.60
66608;DHT22;53462;39.616;8.824;2022-07-23T07:18:24;31.40;44.90
66608;DHT22;53462;39.616;8.824;2022-07-23T07:20:50;31.40;44.10
66608;DHT22;53462;39.616;8.824;2022-07-23T07:23:16;31.70;45.40
66608;DHT22;53462;39.616;8.824;2022-07-23T07:25:42;32.00;43.80
66608;DHT22;53462;39.616;8.824;2022-07-23T07:28:08;32.20;44.50
66608;DHT22;53462;39.616;8.824;2022-07-23T07:30:34;32.10;47.40
66608;DHT22;53462;39.616;8.824;2022-07-23T07:33:00;32.30;46.10
66608;DHT22;53462;39.616;8.824;2022-07-23T07:35:26;32.50;44.00
66608;DHT22;53462;39.616;8.824;2022-07-23T07:37:52;32.50;44.00
66608;DHT22;53462;39.616;8.824;2022-07-23T07:40:18;32.40;46.40
66608;DHT22;53462;39.616;8.824;2022-07-23T07:42:49;32.50;46.90
66608;DHT22;53462;39.616;8.824;2022-07-23T07:45:15;32.50;46.70
66608;DHT22;53462;39.616;8.824;2022-07-23T07:47:41;32.80;46.50
66608;DHT22;53462;39.616;8.824;2022-07-23T07:50:08;32.60;44.40
66608;DHT22;53462;39.616;8.824;2022-07-23T07:52:35;32.70;46.60
66608;DHT22;53462;39.616;8.824;2022-07-23T07:55:06;33.10;44.40
66608;DHT22;53462;39.616;8.824;2022-07-23T07:57:32;33.20;43.70
66608;DHT22;53462;39.616;8.824;2022-07-23T07:59:58;33.10;43.80
66608;DHT22;53462;39.616;8.824;2022-07-23T08:02:24;33.20;43.50
66608;DHT22;53462;39.616;8.824;2022-07-23T08:04:51;33.40;42.90
66608;DHT22;53462;39.616;8.824;2022-07-23T08:07:17;33.70;41.60
66608;DHT22;53462;39.616;8.824;2022-07-23T08:09:43;33.40;41.60
66608;DHT22;53462;39.616;8.824;2022-07-23T08:12:09;33.50;41.30
66608;DHT22;53462;39.616;8.824;2022-07-23T08:14:35;33.40;39.80
66608;DHT22;53462;39.616;8.824;2022-07-23T08:17:00;33.80;41.20
66608;DHT22;53462;39.616;8.824;2022-07-23T08:19:26;33.90;41.20
66608;DHT22;53462;39.616;8.824;2022-07-23T08:21:52;34.00;39.40
66608;DHT22;53462;39.616;8.824;2022-07-23T08:24:18;34.00;40.90
66608;DHT22;53462;39.616;8.824;2022-07-23T08:26:44;34.20;38.10
66608;DHT22;53462;39.616;8.824;2022-07-23T08:29:10;33.90;37.10
66608;DHT22;53462;39.616;8.824;2022-07-23T08:31:36;34.30;37.90
66608;DHT22;53462;39.616;8.824;2022-07-23T08:34:02;34.50;37.90
66608;DHT22;53462;39.616;8.824;2022-07-23T08:36:28;34.50;36.80
66608;DHT22;53462;39.616;8.824;2022-07-23T08:38:58;34.50;38.00
66608;DHT22;53462;39.616;8.824;2022-07-23T08:41:25;35.40;35.90
66608;DHT22;53462;39.616;8.824;2022-07-23T08:43:51;35.70;36.10
66608;DHT22;53462;39.616;8.824;2022-07-23T08:46:19;35.70;35.50
66608;DHT22;53462;39.616;8.824;2022-07-23T08:48:48;35.20;32.30
66608;DHT22;53462;39.616;8.824;2022-07-23T08:51:14;35.20;32.50
66608;DHT22;53462;39.616;8.824;2022-07-23T08:53:41;35.10;32.30
66608;DHT22;53462;39.616;8.824;2022-07-23T08:56:08;35.50;34.20
66608;DHT22;53462;39.616;8.824;2022-07-23T08:58:34;35.60;33.80
66608;DHT22;53462;39.616;8.824;2022-07-23T09:01:01;36.20;33.10
66608;DHT22;53462;39.616;8.824;2022-07-23T09:03:30;35.90;32.10
66608;DHT22;53462;39.616;8.824;2022-07-23T09:05:57;35.80;31.40
66608;DHT22;53462;39.616;8.824;2022-07-23T09:08:36;35.50;30.50
66608;DHT22;53462;39.616;8.824;2022-07-23T09:11:04;36.20;31.30
66608;DHT22;53462;39.616;8.824;2022-07-23T09:13:48;36.40;32.00
66608;DHT22;53462;39.616;8.824;2022-07-23T09:16:23;36.70;31.50
66608;DHT22;53462;39.616;8.824;2022-07-23T09:18:55;36.50;31.30
66608;DHT22;53462;39.616;8.824;2022-07-23T09:21:24;36.50;30.40
66608;DHT22;53462;39.616;8.824;2022-07-23T09:23:58;36.20;30.80
66608;DHT22;53462;39.616;8.824;2022-07-23T09:26:25;36.50;30.60
66608;DHT22;53462;39.616;8.824;2022-07-23T09:28:58;37.00;29.80
66608;DHT22;53462;39.616;8.824;2022-07-23T09:31:25;36.90;29.50
66608;DHT22;53462;39.616;8.824;2022-07-23T09:36:39;37.40;29.50
66608;DHT22;53462;39.616;8.824;2022-07-23T09:39:06;37.60;28.50
66608;DHT22;53462;39.616;8.824;2022-07-23T09:41:50;37.50;29.20
66608;DHT22;53462;39.616;8.824;2022-07-23T09:44:18;37.40;28.60
66608;DHT22;53462;39.616;8.824;2022-07-23T09:46:49;37.20;29.00
66608;DHT22;53462;39.616;8.824;2022-07-23T09:49:21;36.70;26.40
66608;DHT22;53462;39.616;8.824;2022-07-23T09:51:50;36.90;27.80
66608;DHT22;53462;39.616;8.824;2022-07-23T09:54:37;37.40;29.40
66608;DHT22;53462;39.616;8.824;2022-07-23T09:57:08;37.80;28.30
66608;DHT22;53462;39.616;8.824;2022-07-23T09:59:37;38.10;28.00
66608;DHT22;53462;39.616;8.824;2022-07-23T10:02:05;37.00;27.80
66608;DHT22;53462;39.616;8.824;2022-07-23T10:04:40;37.50;29.50
66608;DHT22;53462;39.616;8.824;2022-07-23T10:07:17;37.90;29.00
66608;DHT22;53462;39.616;8.824;2022-07-23T10:10:04;38.00;29.40
66608;DHT22;53462;39.616;8.824;2022-07-23T10:12:56;38.50;28.30
66608;DHT22;53462;39.616;8.824;2022-07-23T10:15:23;38.70;28.90
66608;DHT22;53462;39.616;8.824;2022-07-23T10:17:50;38.50;28.20
66608;DHT22;53462;39.616;8.824;2022-07-23T10:20:16;38.70;29.10
66608;DHT22;53462;39.616;8.824;2022-07-23T10:22:49;38.70;28.60
66608;DHT22;53462;39.616;8.824;2022-07-23T10:25:46;38.80;29.70
66608;DHT22;53462;39.616;8.824;2022-07-23T10:37:06;39.40;30.80
66608;DHT22;53462;39.616;8.824;2022-07-23T10:39:34;39.50;30.70
66608;DHT22;53462;39.616;8.824;2022-07-23T10:42:10;39.50;30.80
66608;DHT22;53462;39.616;8.824;2022-07-23T10:44:46;39.40;29.70
66608;DHT22;53462;39.616;8.824;2022-07-23T10:47:25;39.40;29.60
66608;DHT22;53462;39.616;8.824;2022-07-23T10:50:37;39.40;28.70
66608;DHT22;53462;39.616;8.824;2022-07-23T10:58:02;38.60;27.30
66608;DHT22;53462;39.616;8.824;2022-07-23T11:00:29;39.00;27.40
66608;DHT22;53462;39.616;8.824;2022-07-23T11:03:27;39.40;27.80
66608;DHT22;53462;39.616;8.824;2022-07-23T11:05:45;39.80;27.10
66608;DHT22;53462;39.616;8.824;2022-07-23T11:08:12;40.00;26.40
66608;DHT22;53462;39.616;8.824;2022-07-23T11:10:51;40.10;27.00
66608;DHT22;53462;39.616;8.824;2022-07-23T11:13:26;40.30;27.00
66608;DHT22;53462;39.616;8.824;2022-07-23T11:34:40;40.20;27.10
66608;DHT22;53462;39.616;8.824;2022-07-23T11:37:08;40.40;26.40
66608;DHT22;53462;39.616;8.824;2022-07-23T11:39:35;40.40;26.20
66608;DHT22;53462;39.616;8.824;2022-07-23T11:42:02;40.60;26.40
66608;DHT22;53462;39.616;8.824;2022-07-23T11:44:37;40.90;25.50
66608;DHT22;53462;39.616;8.824;2022-07-23T11:47:10;40.90;26.00
66608;DHT22;53462;39.616;8.824;2022-07-23T11:49:37;40.90;25.40
66608;DHT22;53462;39.616;8.824;2022-07-23T11:52:08;40.90;24.90
66608;DHT22;53462;39.616;8.824;2022-07-23T11:54:37;40.90;26.00
66608;DHT22;53462;39.616;8.824;2022-07-23T11:57:03;40.90;26.20
66608;DHT22;53462;39.616;8.824;2022-07-23T11:59:32;41.30;26.10
66608;DHT22;53462;39.616;8.824;2022-07-23T12:02:05;41.20;25.60
66608;DHT22;53462;39.616;8.824;2022-07-23T12:04:48;40.80;25.50
66608;DHT22;53462;39.616;8.824;2022-07-23T12:07:39;40.90;25.00
66608;DHT22;53462;39.616;8.824;2022-07-23T12:10:16;41.00;26.00
66608;DHT22;53462;39.616;8.824;2022-07-23T12:15:16;41.40;24.00
66608;DHT22;53462;39.616;8.824;2022-07-23T12:17:45;41.30;25.00
66608;DHT22;53462;39.616;8.824;2022-07-23T12:20:24;41.60;23.60
66608;DHT22;53462;39.616;8.824;2022-07-23T12:22:52;41.70;23.50
66608;DHT22;53462;39.616;8.824;2022-07-23T12:25:21;41.50;24.20
66608;DHT22;53462;39.616;8.824;2022-07-23T12:28:01;41.50;24.60
66608;DHT22;53462;39.616;8.824;2022-07-23T12:30:32;41.30;24.40
66608;DHT22;53462;39.616;8.824;2022-07-23T12:32:59;41.40;24.10
66608;DHT22;53462;39.616;8.824;2022-07-23T12:35:32;41.30;23.60
66608;DHT22;53462;39.616;8.824;2022-07-23T12:38:04;41.00;24.20
66608;DHT22;53462;39.616;8.824;2022-07-23T12:40:46;41.10;24.00
66608;DHT22;53462;39.616;8.824;2022-07-23T12:43:26;41.00;23.50
66608;DHT22;53462;39.616;8.824;2022-07-23T12:51:17;41.10;25.00
66608;DHT22;53462;39.616;8.824;2022-07-23T12:53:45;40.90;24.80
66608;DHT22;53462;39.616;8.824;2022-07-23T12:56:29;40.50;24.60
66608;DHT22;53462;39.616;8.824;2022-07-23T12:58:57;40.50;24.90
66608;DHT22;53462;39.616;8.824;2022-07-23T13:01:26;40.50;24.00
66608;DHT22;53462;39.616;8.824;2022-07-23T13:04:05;40.40;24.50
66608;DHT22;53462;39.616;8.824;2022-07-23T13:06:43;40.60;23.90
66608;DHT22;53462;39.616;8.824;2022-07-23T13:09:17;40.10;23.70
66608;DHT22;53462;39.616;8.824;2022-07-23T13:11:44;40.00;24.50
66608;DHT22;53462;39.616;8.824;2022-07-23T13:14:12;39.90;24.70
66608;DHT22;53462;39.616;8.824;2022-07-23T13:16:39;39.90;24.70
66608;DHT22;53462;39.616;8.824;2022-07-23T13:19:06;39.90;25.50
66608;DHT22;53462;39.616;8.824;2022-07-23T13:21:32;39.80;25.80
66608;DHT22;53462;39.616;8.824;2022-07-23T13:23:58;39.80;25.50
66608;DHT22;53462;39.616;8.824;2022-07-23T13:26:25;39.60;25.60
66608;DHT22;53462;39.616;8.824;2022-07-23T13:28:51;39.50;24.70
66608;DHT22;53462;39.616;8.824;2022-07-23T13:31:17;39.40;24.70
66608;DHT22;53462;39.616;8.824;2022-07-23T13:33:43;39.30;24.80
66608;DHT22;53462;39.616;8.824;2022-07-23T13:36:09;39.40;25.30
66608;DHT22;53462;39.616;8.824;2022-07-23T13:38:35;39.10;25.20
66608;DHT22;53462;39.616;8.824;2022-07-23T13:41:01;38.90;26.20
66608;DHT22;53462;39.616;8.824;2022-07-23T13:43:29;39.10;25.50
66608;DHT22;53462;39.616;8.824;2022-07-23T13:45:55;39.00;25.50
66608;DHT22;53462;39.616;8.824;2022-07-23T13:48:21;38.90;25.80
66608;DHT22;53462;39.616;8.824;2022-07-23T13:50:49;39.00;25.80
66608;DHT22;53462;39.616;8.824;2022-07-23T13:53:18;39.00;26.10
66608;DHT22;53462;39.616;8.824;2022-07-23T13:55:45;38.90;26.20
66608;DHT22;53462;39.616;8.824;2022-07-23T13:58:12;38.60;25.50
66608;DHT22;53462;39.616;8.824;2022-07-23T14:00:43;38.70;27.10
66608;DHT22;53462;39.616;8.824;2022-07-23T14:03:09;38.50;27.30
66608;DHT22;53462;39.616;8.824;2022-07-23T14:05:35;38.20;26.70
66608;DHT22;53462;39.616;8.824;2022-07-23T14:08:02;38.10;26.80
66608;DHT22;53462;39.616;8.824;2022-07-23T14:10:29;38.00;27.40
66608;DHT22;53462;39.616;8.824;2022-07-23T14:12:55;38.20;27.00
66608;DHT22;53462;39.616;8.824;2022-07-23T14:15:28;38.00;27.30
66608;DHT22;53462;39.616;8.824;2022-07-23T14:17:55;38.10;26.20
66608;DHT22;53462;39.616;8.824;2022-07-23T14:20:22;37.90;27.20
66608;DHT22;53462;39.616;8.824;2022-07-23T14:22:48;37.80;27.40
66608;DHT22;53462;39.616;8.824;2022-07-23T14:25:15;37.80;27.00
66608;DHT22;53462;39.616;8.824;2022-07-23T14:27:42;37.90;27.00
66608;DHT22;53462;39.616;8.824;2022-07-23T14:30:09;38.10;27.10
66608;DHT22;53462;39.616;8.824;2022-07-23T14:32:35;37.80;27.20
66608;DHT22;53462;39.616;8.824;2022-07-23T14:35:03;37.70;26.60
66608;DHT22;53462;39.616;8.824;2022-07-23T14:37:29;37.50;26.40
66608;DHT22;53462;39.616;8.824;2022-07-23T14:39:55;37.60;26.50
66608;DHT22;53462;39.616;8.824;2022-07-23T14:42:21;37.50;27.10
66608;DHT22;53462;39.616;8.824;2022-07-23T14:44:47;37.50;27.30
66608;DHT22;53462;39.616;8.824;2022-07-23T14:47:13;37.30;27.40
66608;DHT22;53462;39.616;8.824;2022-07-23T14:49:39;37.10;27.30
66608;DHT22;53462;39.616;8.824;2022-07-23T14:52:06;37.10;27.50
66608;DHT22;53462;39.616;8.824;2022-07-23T14:54:33;36.90;28.10
66608;DHT22;53462;39.616;8.824;2022-07-23T14:56:59;37.00;28.70
66608;DHT22;53462;39.616;8.824;2022-07-23T14:59:26;36.80;27.90
66608;DHT22;53462;39.616;8.824;2022-07-23T15:01:53;37.00;28.30
66608;DHT22;53462;39.616;8.824;2022-07-23T15:04:19;36.80;28.10
66608;DHT22;53462;39.616;8.824;2022-07-23T15:06:45;36.90;28.50
66608;DHT22;53462;39.616;8.824;2022-07-23T15:09:11;36.90;27.50
66608;DHT22;53462;39.616;8.824;2022-07-23T15:11:37;36.60;27.40
66608;DHT22;53462;39.616;8.824;2022-07-23T15:14:04;36.50;29.00
66608;DHT22;53462;39.616;8.824;2022-07-23T15:16:30;36.60;28.20
66608;DHT22;53462;39.616;8.824;2022-07-23T15:18:56;36.40;28.70
66608;DHT22;53462;39.616;8.824;2022-07-23T15:21:22;36.20;30.00
66608;DHT22;53462;39.616;8.824;2022-07-23T15:23:48;36.30;29.20
66608;DHT22;53462;39.616;8.824;2022-07-23T15:26:14;36.30;28.90
66608;DHT22;53462;39.616;8.824;2022-07-23T15:28:41;36.10;29.50
66608;DHT22;53462;39.616;8.824;2022-07-23T15:31:07;36.10;29.10
66608;DHT22;53462;39.616;8.824;2022-07-23T15:33:33;36.20;27.80
66608;DHT22;53462;39.616;8.824;2022-07-23T15:36:01;36.10;28.60
66608;DHT22;53462;39.616;8.824;2022-07-23T15:38:27;35.90;28.60
66608;DHT22;53462;39.616;8.824;2022-07-23T15:40:54;35.80;28.80
66608;DHT22;53462;39.616;8.824;2022-07-23T15:43:21;35.80;29.40
66608;DHT22;53462;39.616;8.824;2022-07-23T15:45:48;35.80;29.80
66608;DHT22;53462;39.616;8.824;2022-07-23T15:48:14;35.80;29.60
66608;DHT22;53462;39.616;8.824;2022-07-23T15:50:41;35.90;30.60
66608;DHT22;53462;39.616;8.824;2022-07-23T15:53:07;35.70;31.10
66608;DHT22;53462;39.616;8.824;2022-07-23T15:55:33;35.60;30.40
66608;DHT22;53462;39.616;8.824;2022-07-23T15:57:59;35.60;29.70
66608;DHT22;53462;39.616;8.824;2022-07-23T16:00:25;35.40;29.70
66608;DHT22;53462;39.616;8.824;2022-07-23T16:02:50;35.30;30.60
66608;DHT22;53462;39.616;8.824;2022-07-23T16:05:17;35.40;29.80
66608;DHT22;53462;39.616;8.824;2022-07-23T16:08:01;35.40;30.70
66608;DHT22;53462;39.616;8.824;2022-07-23T16:10:28;35.40;30.40
66608;DHT22;53462;39.616;8.824;2022-07-23T16:12:54;35.40;30.60
66608;DHT22;53462;39.616;8.824;2022-07-23T16:15:20;35.20;28.40
66608;DHT22;53462;39.616;8.824;2022-07-23T16:17:46;35.00;30.50
66608;DHT22;53462;39.616;8.824;2022-07-23T16:20:12;35.00;30.80